sensor_id;sensor_type;location;lat;lon;timestamp;temperature;humidity
3876;DHT22;1953;51.222;6.624;2023-05-07T00:01:11;17.80;1.00
3876;DHT22;1953;51.222;6.624;2023-05-07T00:05:53;17.80;1.00
3876;DHT22;1953;51.222;6.624;2023-05-07T00:11:30;17.80;1.00
3876;DHT22;1953;51.222;6.624;2023-05-07T00:16:13;17.70;1.00
3876;DHT22;1953;51.222;6.624;2023-05-07T00:20:56;17.70;1.00
3876;DHT22;1953;51.222;6.624;2023-05-07T00:25:38;17.70;1.00
3876;DHT22;1953;51.222;6.624;2023-05-07T00:30:22;17.70;1.00
3876;DHT22;1953;51.222;6.624;2023-05-07T00:35:06;17.70;1.00
3876;DHT22;1953;51.222;6.624;2023-05-07T00:39:49;17.70;1.00
3876;DHT22;1953;51.222;6.624;2023-05-07T00:44:32;17.70;1.00
3876;DHT22;1953;51.222;6.624;2023-05-07T00:49:16;17.60;1.00
3876;DHT22;1953;51.222;6.624;2023-05-07T00:54:00;17.60;1.00
3876;DHT22;1953;51.222;6.624;2023-05-07T00:58:44;17.60;1.00
3876;DHT22;1953;51.222;6.624;2023-05-07T01:03:26;17.60;1.00
3876;DHT22;1953;51.222;6.624;2023-05-07T01:08:10;17.60;1.00
3876;DHT22;1953;51.222;6.624;2023-05-07T01:12:54;17.60;1.00
3876;DHT22;1953;51.222;6.624;2023-05-07T01:17:37;17.60;1.00
3876;DHT22;1953;51.222;6.624;2023-05-07T01:22:29;17.60;1.00
3876;DHT22;1953;51.222;6.624;2023-05-07T01:27:13;17.60;1.00
3876;DHT22;1953;51.222;6.624;2023-05-07T01:31:57;17.50;1.00
3876;DHT22;1953;51.222;6.624;2023-05-07T01:36:40;17.40;1.00
3876;DHT22;1953;51.222;6.624;2023-05-07T01:41:26;17.30;1.00
3876;DHT22;1953;51.222;6.624;2023-05-07T01:46:09;17.30;1.00
3876;DHT22;1953;51.222;6.624;2023-05-07T01:50:53;17.30;1.00
3876;DHT22;1953;51.222;6.624;2023-05-07T01:55:35;17.30;1.00
3876;DHT22;1953;51.222;6.624;2023-05-07T02:00:21;17.20;1.00
3876;DHT22;1953;51.222;6.624;2023-05-07T02:05:04;17.30;1.00
3876;DHT22;1953;51.222;6.624;2023-05-07T02:09:47;17.10;1.00
3876;DHT22;1953;51.222;6.624;2023-05-07T02:14:29;16.90;1.00
3876;DHT22;1953;51.222;6.624;2023-05-07T02:19:13;16.70;1.00
3876;DHT22;1953;51.222;6.624;2023-05-07T02:23:56;16.80;1.00
3876;DHT22;1953;51.222;6.624;2023-05-07T02:28:38;16.80;1.00
3876;DHT22;1953;51.222;6.624;2023-05-07T02:33:26;16.80;1.00
3876;DHT22;1953;51.222;6.624;2023-05-07T02:38:10;16.80;1.00
3876;DHT22;1953;51.222;6.624;2023-05-07T02:42:53;16.90;1.00
3876;DHT22;1953;51.222;6.624;2023-05-07T02:47:36;16.90;1.00
3876;DHT22;1953;51.222;6.624;2023-05-07T02:52:18;16.80;1.00
3876;DHT22;1953;51.222;6.624;2023-05-07T02:57:02;16.80;1.00
3876;DHT22;1953;51.222;6.624;2023-05-07T03:01:45;16.80;1.00
3876;DHT22;1953;51.222;6.624;2023-05-07T03:06:28;16.80;1.00
3876;DHT22;1953;51.222;6.624;2023-05-07T03:11:10;16.80;1.00
3876;DHT22;1953;51.222;6.624;2023-05-07T03:15:55;16.80;1.00
3876;DHT22;1953;51.222;6.624;2023-05-07T03:20:38;16.80;1.00
3876;DHT22;1953;51.222;6.624;2023-05-07T03:25:21;16.80;1.00
3876;DHT22;1953;51.222;6.624;2023-05-07T03:30:04;16.80;1.00
3876;DHT22;1953;51.222;6.624;2023-05-07T03:34:49;16.70;1.00
3876;DHT22;1953;51.222;6.624;2023-05-07T03:39:31;16.70;1.00
3876;DHT22;1953;51.222;6.624;2023-05-07T03:44:14;16.70;1.00
3876;DHT22;1953;51.222;6.624;2023-05-07T03:48:56;16.60;1.00
3876;DHT22;1953;51.222;6.624;2023-05-07T03:53:40;16.50;1.00
3876;DHT22;1953;51.222;6.624;2023-05-07T03:58:23;16.50;1.00
3876;DHT22;1953;51.222;6.624;2023-05-07T04:03:05;16.50;1.00
3876;DHT22;1953;51.222;6.624;2023-05-07T04:07:48;16.50;1.00
3876;DHT22;1953;51.222;6.624;2023-05-07T04:12:32;16.50;1.00
3876;DHT22;1953;51.222;6.624;2023-05-07T04:17:14;16.40;1.00
3876;DHT22;1953;51.222;6.624;2023-05-07T04:21:57;16.40;1.00
3876;DHT22;1953;51.222;6.624;2023-05-07T04:26:39;16.40;1.00
3876;DHT22;1953;51.222;6.624;2023-05-07T04:31:23;16.30;1.00
3876;DHT22;1953;51.222;6.624;2023-05-07T04:36:06;16.40;1.00
3876;DHT22;1953;51.222;6.624;2023-05-07T04:40:49;16.40;1.00
3876;DHT22;1953;51.222;6.624;2023-05-07T04:45:32;16.40;1.00
3876;DHT22;1953;51.222;6.624;2023-05-07T04:50:16;16.50;1.00
3876;DHT22;1953;51.222;6.624;2023-05-07T04:55:00;16.60;1.00
3876;DHT22;1953;51.222;6.624;2023-05-07T04:59:43;16.70;1.00
3876;DHT22;1953;51.222;6.624;2023-05-07T05:04:26;16.80;1.00
3876;DHT22;1953;51.222;6.624;2023-05-07T05:09:10;16.80;1.00
3876;DHT22;1953;51.222;6.624;2023-05-07T05:13:52;16.90;1.00
3876;DHT22;1953;51.222;6.624;2023-05-07T05:18:35;16.90;1.00
3876;DHT22;1953;51.222;6.624;2023-05-07T05:23:17;16.90;1.00
3876;DHT22;1953;51.222;6.624;2023-05-07T05:28:01;17.10;1.00
3876;DHT22;1953;51.222;6.624;2023-05-07T05:32:44;17.10;1.00
3876;DHT22;1953;51.222;6.624;2023-05-07T05:37:27;17.30;1.00
3876;DHT22;1953;51.222;6.624;2023-05-07T05:42:11;17.30;1.00
3876;DHT22;1953;51.222;6.624;2023-05-07T05:46:55;17.50;1.00
3876;DHT22;1953;51.222;6.624;2023-05-07T05:51:38;17.50;1.00
3876;DHT22;1953;51.222;6.624;2023-05-07T05:56:21;17.60;1.00
3876;DHT22;1953;51.222;6.624;2023-05-07T06:01:04;17.60;1.00
3876;DHT22;1953;51.222;6.624;2023-05-07T06:05:48;17.70;1.00
3876;DHT22;1953;51.222;6.624;2023-05-07T06:10:30;17.70;1.00
3876;DHT22;1953;51.222;6.624;2023-05-07T06:15:13;17.80;1.00
3876;DHT22;1953;51.222;6.624;2023-05-07T06:19:55;17.90;1.00
3876;DHT22;1953;51.222;6.624;2023-05-07T06:24:39;18.00;1.00
3876;DHT22;1953;51.222;6.624;2023-05-07T06:29:22;18.10;1.00
3876;DHT22;1953;51.222;6.624;2023-05-07T06:34:07;18.20;1.00
3876;DHT22;1953;51.222;6.624;2023-05-07T06:38:50;18.30;1.00
3876;DHT22;1953;51.222;6.624;2023-05-07T06:43:34;18.40;1.00
3876;DHT22;1953;51.222;6.624;2023-05-07T06:48:18;18.50;1.00
3876;DHT22;1953;51.222;6.624;2023-05-07T06:53:00;18.60;1.00
3876;DHT22;1953;51.222;6.624;2023-05-07T06:57:43;18.70;1.00
3876;DHT22;1953;51.222;6.624;2023-05-07T07:02:27;18.80;1.00
3876;DHT22;1953;51.222;6.624;2023-05-07T07:07:10;18.90;1.00
3876;DHT22;1953;51.222;6.624;2023-05-07T07:11:53;19.00;1.00
3876;DHT22;1953;51.222;6.624;2023-05-07T07:16:35;19.00;1.00
3876;DHT22;1953;51.222;6.624;2023-05-07T07:21:19;19.10;1.00
3876;DHT22;1953;51.222;6.624;2023-05-07T07:26:02;19.30;1.00
3876;DHT22;1953;51.222;6.624;2023-05-07T07:30:45;19.50;1.00
3876;DHT22;1953;51.222;6.624;2023-05-07T07:35:27;19.50;1.00
3876;DHT22;1953;51.222;6.624;2023-05-07T07:40:12;19.50;1.00
3876;DHT22;1953;51.222;6.624;2023-05-07T07:44:55;19.60;1.00
3876;DHT22;1953;51.222;6.624;2023-05-07T07:49:38;19.80;1.00
3876;DHT22;1953;51.222;6.624;2023-05-07T07:54:20;19.80;1.00
3876;DHT22;1953;51.222;6.624;2023-05-07T07:59:04;19.90;1.00
3876;DHT22;1953;51.222;6.624;2023-05-07T08:03:47;19.90;1.00
3876;DHT22;1953;51.222;6.624;2023-05-07T08:08:29;20.10;1.00
3876;DHT22;1953;51.222;6.624;2023-05-07T08:13:12;20.30;1.00
3876;DHT22;1953;51.222;6.624;2023-05-07T08:17:56;20.40;1.00
3876;DHT22;1953;51.222;6.624;2023-05-07T08:22:39;20.70;1.00
3876;DHT22;1953;51.222;6.624;2023-05-07T08:27:22;20.90;1.00
3876;DHT22;1953;51.222;6.624;2023-05-07T08:32:04;21.10;1.00
3876;DHT22;1953;51.222;6.624;2023-05-07T08:36:48;21.30;1.00
3876;DHT22;1953;51.222;6.624;2023-05-07T08:41:31;21.60;1.00
3876;DHT22;1953;51.222;6.624;2023-05-07T08:46:17;21.90;1.00
3876;DHT22;1953;51.222;6.624;2023-05-07T08:51:00;22.00;1.00
3876;DHT22;1953;51.222;6.624;2023-05-07T08:55:45;22.20;1.00
3876;DHT22;1953;51.222;6.624;2023-05-07T09:00:28;22.40;1.00
3876;DHT22;1953;51.222;6.624;2023-05-07T09:05:11;22.70;1.00
3876;DHT22;1953;51.222;6.624;2023-05-07T09:09:53;22.80;1.00
3876;DHT22;1953;51.222;6.624;2023-05-07T09:14:39;23.00;1.00
3876;DHT22;1953;51.222;6.624;2023-05-07T09:19:25;23.10;1.00
3876;DHT22;1953;51.222;6.624;2023-05-07T09:24:08;23.20;1.00
3876;DHT22;1953;51.222;6.624;2023-05-07T09:28:51;23.10;1.00
3876;DHT22;1953;51.222;6.624;2023-05-07T09:33:34;23.10;1.00
3876;DHT22;1953;51.222;6.624;2023-05-07T09:38:18;23.30;1.00
3876;DHT22;1953;51.222;6.624;2023-05-07T09:43:11;23.50;1.00
3876;DHT22;1953;51.222;6.624;2023-05-07T09:47:56;23.80;1.00
3876;DHT22;1953;51.222;6.624;2023-05-07T09:52:40;23.90;1.00
3876;DHT22;1953;51.222;6.624;2023-05-07T09:57:25;24.10;1.00
3876;DHT22;1953;51.222;6.624;2023-05-07T10:02:09;24.20;1.00
3876;DHT22;1953;51.222;6.624;2023-05-07T10:06:52;24.40;1.00
3876;DHT22;1953;51.222;6.624;2023-05-07T10:11:38;24.50;1.00
3876;DHT22;1953;51.222;6.624;2023-05-07T10:16:21;24.70;1.00
3876;DHT22;1953;51.222;6.624;2023-05-07T10:21:07;24.80;1.00
3876;DHT22;1953;51.222;6.624;2023-05-07T10:25:50;25.00;1.00
3876;DHT22;1953;51.222;6.624;2023-05-07T10:30:41;25.20;1.00
3876;DHT22;1953;51.222;6.624;2023-05-07T10:35:31;25.40;1.00
3876;DHT22;1953;51.222;6.624;2023-05-07T10:40:14;25.40;1.00
3876;DHT22;1953;51.222;6.624;2023-05-07T10:45:11;25.40;1.00
3876;DHT22;1953;51.222;6.624;2023-05-07T10:50:23;25.40;1.00
3876;DHT22;1953;51.222;6.624;2023-05-07T10:55:22;25.50;1.00
3876;DHT22;1953;51.222;6.624;2023-05-07T11:00:42;25.50;1.00
3876;DHT22;1953;51.222;6.624;2023-05-07T11:05:28;25.80;1.00
3876;DHT22;1953;51.222;6.624;2023-05-07T11:10:11;25.90;1.00
3876;DHT22;1953;51.222;6.624;2023-05-07T11:14:54;25.10;1.00
3876;DHT22;1953;51.222;6.624;2023-05-07T11:19:48;26.20;1.00
3876;DHT22;1953;51.222;6.624;2023-05-07T11:24:39;26.40;1.00
3876;DHT22;1953;51.222;6.624;2023-05-07T11:29:22;26.30;1.00
3876;DHT22;1953;51.222;6.624;2023-05-07T11:34:05;26.50;1.00
3876;DHT22;1953;51.222;6.624;2023-05-07T11:38:48;26.60;1.00
3876;DHT22;1953;51.222;6.624;2023-05-07T11:43:33;26.70;1.00
3876;DHT22;1953;51.222;6.624;2023-05-07T11:48:16;26.80;1.00
3876;DHT22;1953;51.222;6.624;2023-05-07T11:52:59;26.90;1.00
3876;DHT22;1953;51.222;6.624;2023-05-07T11:57:42;26.90;1.00
3876;DHT22;1953;51.222;6.624;2023-05-07T12:02:26;26.80;1.00
3876;DHT22;1953;51.222;6.624;2023-05-07T12:07:11;26.70;1.00
3876;DHT22;1953;51.222;6.624;2023-05-07T12:12:31;26.70;1.00
3876;DHT22;1953;51.222;6.624;2023-05-07T12:17:14;26.50;1.00
3876;DHT22;1953;51.222;6.624;2023-05-07T12:21:57;26.40;1.00
3876;DHT22;1953;51.222;6.624;2023-05-07T12:26:40;26.40;1.00
3876;DHT22;1953;51.222;6.624;2023-05-07T12:31:25;26.40;1.00
3876;DHT22;1953;51.222;6.624;2023-05-07T12:36:08;26.60;1.00
3876;DHT22;1953;51.222;6.624;2023-05-07T12:40:54;26.60;1.00
3876;DHT22;1953;51.222;6.624;2023-05-07T12:45:37;26.50;1.00
3876;DHT22;1953;51.222;6.624;2023-05-07T12:50:22;26.40;1.00
3876;DHT22;1953;51.222;6.624;2023-05-07T12:55:05;26.10;1.00
3876;DHT22;1953;51.222;6.624;2023-05-07T12:59:48;27.00;1.00
3876;DHT22;1953;51.222;6.624;2023-05-07T13:04:30;25.70;1.00
3876;DHT22;1953;51.222;6.624;2023-05-07T13:09:14;25.60;1.00
3876;DHT22;1953;51.222;6.624;2023-05-07T13:13:57;25.50;1.00
3876;DHT22;1953;51.222;6.624;2023-05-07T13:18:40;25.20;1.00
3876;DHT22;1953;51.222;6.624;2023-05-07T13:23:24;25.20;1.00
3876;DHT22;1953;51.222;6.624;2023-05-07T13:28:08;25.20;1.00
3876;DHT22;1953;51.222;6.624;2023-05-07T13:32:51;25.00;1.00
3876;DHT22;1953;51.222;6.624;2023-05-07T13:37:34;24.80;1.00
3876;DHT22;1953;51.222;6.624;2023-05-07T13:42:17;24.60;1.00
3876;DHT22;1953;51.222;6.624;2023-05-07T13:47:01;24.40;1.00
3876;DHT22;1953;51.222;6.624;2023-05-07T13:51:44;24.30;1.00
3876;DHT22;1953;51.222;6.624;2023-05-07T13:56:26;24.30;1.00
3876;DHT22;1953;51.222;6.624;2023-05-07T14:01:12;24.20;1.00
3876;DHT22;1953;51.222;6.624;2023-05-07T14:05:56;24.30;1.00
3876;DHT22;1953;51.222;6.624;2023-05-07T14:10:39;24.20;1.00
3876;DHT22;1953;51.222;6.624;2023-05-07T14:15:21;24.00;1.00
3876;DHT22;1953;51.222;6.624;2023-05-07T14:20:05;23.70;1.00
3876;DHT22;1953;51.222;6.624;2023-05-07T14:24:50;23.30;1.00
3876;DHT22;1953;51.222;6.624;2023-05-07T14:29:33;23.00;1.00
3876;DHT22;1953;51.222;6.624;2023-05-07T14:34:16;22.70;1.00
3876;DHT22;1953;51.222;6.624;2023-05-07T14:38:59;22.70;1.00
3876;DHT22;1953;51.222;6.624;2023-05-07T14:43:43;22.50;1.00
3876;DHT22;1953;51.222;6.624;2023-05-07T14:48:31;22.60;1.00
3876;DHT22;1953;51.222;6.624;2023-05-07T14:53:13;22.40;1.00
3876;DHT22;1953;51.222;6.624;2023-05-07T14:57:56;21.90;1.00
3876;DHT22;1953;51.222;6.624;2023-05-07T15:02:40;21.50;1.00
3876;DHT22;1953;51.222;6.624;2023-05-07T15:07:23;22.30;1.00
3876;DHT22;1953;51.222;6.624;2023-05-07T15:12:05;21.10;1.00
3876;DHT22;1953;51.222;6.624;2023-05-07T15:16:49;21.00;1.00
3876;DHT22;1953;51.222;6.624;2023-05-07T15:21:32;20.90;1.00
3876;DHT22;1953;51.222;6.624;2023-05-07T15:26:16;20.80;1.00
3876;DHT22;1953;51.222;6.624;2023-05-07T15:30:59;20.80;1.00
3876;DHT22;1953;51.222;6.624;2023-05-07T15:35:41;20.90;1.00
3876;DHT22;1953;51.222;6.624;2023-05-07T15:40:25;21.00;1.00
3876;DHT22;1953;51.222;6.624;2023-05-07T15:45:09;21.10;1.00
3876;DHT22;1953;51.222;6.624;2023-05-07T15:49:52;21.30;1.00
3876;DHT22;1953;51.222;6.624;2023-05-07T15:54:34;21.40;1.00
3876;DHT22;1953;51.222;6.624;2023-05-07T15:59:19;21.60;1.00
3876;DHT22;1953;51.222;6.624;2023-05-07T16:04:02;21.70;1.00
3876;DHT22;1953;51.222;6.624;2023-05-07T16:08:45;21.90;1.00
3876;DHT22;1953;51.222;6.624;2023-05-07T16:13:28;22.10;1.00
3876;DHT22;1953;51.222;6.624;2023-05-07T16:18:12;22.20;1.00
3876;DHT22;1953;51.222;6.624;2023-05-07T16:22:56;22.40;1.00
3876;DHT22;1953;51.222;6.624;2023-05-07T16:27:39;22.60;1.00
3876;DHT22;1953;51.222;6.624;2023-05-07T16:32:21;22.70;1.00
3876;DHT22;1953;51.222;6.624;2023-05-07T16:37:05;22.80;1.00
3876;DHT22;1953;51.222;6.624;2023-05-07T16:41:48;22.80;1.00
3876;DHT22;1953;51.222;6.624;2023-05-07T16:46:30;22.90;1.00
3876;DHT22;1953;51.222;6.624;2023-05-07T16:51:13;22.80;1.00
3876;DHT22;1953;51.222;6.624;2023-05-07T16:55:57;22.70;1.00
3876;DHT22;1953;51.222;6.624;2023-05-07T17:00:40;22.80;1.00
3876;DHT22;1953;51.222;6.624;2023-05-07T17:05:22;22.80;1.00
3876;DHT22;1953;51.222;6.624;2023-05-07T17:10:05;22.60;1.00
3876;DHT22;1953;51.222;6.624;2023-05-07T17:14:50;22.40;1.00
3876;DHT22;1953;51.222;6.624;2023-05-07T17:19:33;22.20;1.00
3876;DHT22;1953;51.222;6.624;2023-05-07T17:24:18;22.00;1.00
3876;DHT22;1953;51.222;6.624;2023-05-07T17:29:01;21.80;1.00
3876;DHT22;1953;51.222;6.624;2023-05-07T17:33:45;21.80;1.00
3876;DHT22;1953;51.222;6.624;2023-05-07T17:38:27;21.70;1.00
3876;DHT22;1953;51.222;6.624;2023-05-07T17:43:10;21.60;1.00
3876;DHT22;1953;51.222;6.624;2023-05-07T17:47:53;21.50;1.00
3876;DHT22;1953;51.222;6.624;2023-05-07T17:52:38;21.40;1.00
3876;DHT22;1953;51.222;6.624;2023-05-07T17:57:21;21.50;1.00
3876;DHT22;1953;51.222;6.624;2023-05-07T18:02:04;21.50;1.00
3876;DHT22;1953;51.222;6.624;2023-05-07T18:06:46;21.40;1.00
3876;DHT22;1953;51.222;6.624;2023-05-07T18:11:30;21.20;1.00
3876;DHT22;1953;51.222;6.624;2023-05-07T18:16:13;21.00;1.00
3876;DHT22;1953;51.222;6.624;2023-05-07T18:20:56;20.80;1.00
3876;DHT22;1953;51.222;6.624;2023-05-07T18:25:39;20.70;1.00
3876;DHT22;1953;51.222;6.624;2023-05-07T18:30:23;20.60;1.00
3876;DHT22;1953;51.222;6.624;2023-05-07T18:35:06;20.50;1.00
3876;DHT22;1953;51.222;6.624;2023-05-07T18:39:48;20.40;1.00
3876;DHT22;1953;51.222;6.624;2023-05-07T18:44:31;20.30;1.00
3876;DHT22;1953;51.222;6.624;2023-05-07T18:49:18;20.30;1.00
3876;DHT22;1953;51.222;6.624;2023-05-07T18:54:01;20.30;1.00
3876;DHT22;1953;51.222;6.624;2023-05-07T18:58:44;20.30;1.00
3876;DHT22;1953;51.222;6.624;2023-05-07T19:03:27;20.40;1.00
3876;DHT22;1953;51.222;6.624;2023-05-07T19:08:11;20.40;1.00
3876;DHT22;1953;51.222;6.624;2023-05-07T19:12:53;20.30;1.00
3876;DHT22;1953;51.222;6.624;2023-05-07T19:17:37;20.30;1.00
3876;DHT22;1953;51.222;6.624;2023-05-07T19:22:20;20.20;1.00
3876;DHT22;1953;51.222;6.624;2023-05-07T19:27:04;20.20;1.00
3876;DHT22;1953;51.222;6.624;2023-05-07T19:31:46;20.40;1.00
3876;DHT22;1953;51.222;6.624;2023-05-07T19:36:29;20.10;1.00
3876;DHT22;1953;51.222;6.624;2023-05-07T19:41:13;20.00;1.00
3876;DHT22;1953;51.222;6.624;2023-05-07T19:45:57;19.90;1.00
3876;DHT22;1953;51.222;6.624;2023-05-07T19:50:39;19.80;1.00
3876;DHT22;1953;51.222;6.624;2023-05-07T19:55:22;19.80;1.00
3876;DHT22;1953;51.222;6.624;2023-05-07T20:00:06;19.70;1.00
3876;DHT22;1953;51.222;6.624;2023-05-07T20:04:50;19.70;1.00
3876;DHT22;1953;51.222;6.624;2023-05-07T20:09:32;19.60;1.00
3876;DHT22;1953;51.222;6.624;2023-05-07T20:14:15;19.60;1.00
3876;DHT22;1953;51.222;6.624;2023-05-07T20:18:58;19.60;1.00
3876;DHT22;1953;51.222;6.624;2023-05-07T20:23:41;19.50;1.00
3876;DHT22;1953;51.222;6.624;2023-05-07T20:28:24;19.60;1.00
3876;DHT22;1953;51.222;6.624;2023-05-07T20:33:07;19.60;1.00
3876;DHT22;1953;51.222;6.624;2023-05-07T20:37:49;19.60;1.00
3876;DHT22;1953;51.222;6.624;2023-05-07T20:42:33;19.50;1.00
3876;DHT22;1953;51.222;6.624;2023-05-07T20:47:16;19.50;1.00
3876;DHT22;1953;51.222;6.624;2023-05-07T20:51:59;19.40;1.00
3876;DHT22;1953;51.222;6.624;2023-05-07T20:56:41;19.40;1.00
3876;DHT22;1953;51.222;6.624;2023-05-07T21:01:25;19.40;1.00
3876;DHT22;1953;51.222;6.624;2023-05-07T21:06:08;19.40;1.00
3876;DHT22;1953;51.222;6.624;2023-05-07T21:10:51;19.40;1.00
3876;DHT22;1953;51.222;6.624;2023-05-07T21:15:34;19.10;1.00
3876;DHT22;1953;51.222;6.624;2023-05-07T21:20:18;19.40;1.00
3876;DHT22;1953;51.222;6.624;2023-05-07T21:25:01;19.30;1.00
3876;DHT22;1953;51.222;6.624;2023-05-07T21:29:43;19.20;1.00
3876;DHT22;1953;51.222;6.624;2023-05-07T21:34:26;19.10;1.00
3876;DHT22;1953;51.222;6.624;2023-05-07T21:39:10;19.10;1.00
3876;DHT22;1953;51.222;6.624;2023-05-07T21:43:53;19.10;1.00
3876;DHT22;1953;51.222;6.624;2023-05-07T21:48:35;19.10;1.00
3876;DHT22;1953;51.222;6.624;2023-05-07T21:53:18;19.10;1.00
3876;DHT22;1953;51.222;6.624;2023-05-07T21:58:02;19.10;1.00
3876;DHT22;1953;51.222;6.624;2023-05-07T22:02:44;19.10;1.00
3876;DHT22;1953;51.222;6.624;2023-05-07T22:07:27;19.00;1.00
3876;DHT22;1953;51.222;6.624;2023-05-07T22:12:09;19.00;1.00
3876;DHT22;1953;51.222;6.624;2023-05-07T22:16:53;19.00;1.00
3876;DHT22;1953;51.222;6.624;2023-05-07T22:21:36;19.00;1.00
3876;DHT22;1953;51.222;6.624;2023-05-07T22:26:19;18.90;1.00
3876;DHT22;1953;51.222;6.624;2023-05-07T22:31:02;18.90;1.00
3876;DHT22;1953;51.222;6.624;2023-05-07T22:35:46;18.90;1.00
3876;DHT22;1953;51.222;6.624;2023-05-07T22:40:28;18.90;1.00
3876;DHT22;1953;51.222;6.624;2023-05-07T22:45:11;18.70;1.00
3876;DHT22;1953;51.222;6.624;2023-05-07T22:49:53;18.60;1.00
3876;DHT22;1953;51.222;6.624;2023-05-07T22:54:37;18.60;1.00
3876;DHT22;1953;51.222;6.624;2023-05-07T22:59:20;18.50;1.00
3876;DHT22;1953;51.222;6.624;2023-05-07T23:04:02;18.50;1.00
3876;DHT22;1953;51.222;6.624;2023-05-07T23:08:45;18.50;1.00
3876;DHT22;1953;51.222;6.624;2023-05-07T23:13:28;18.40;1.00
3876;DHT22;1953;51.222;6.624;2023-05-07T23:18:11;18.50;1.00
3876;DHT22;1953;51.222;6.624;2023-05-07T23:22:53;18.50;1.00
3876;DHT22;1953;51.222;6.624;2023-05-07T23:27:37;18.30;1.00
3876;DHT22;1953;51.222;6.624;2023-05-07T23:32:20;18.30;1.00
3876;DHT22;1953;51.222;6.624;2023-05-07T23:37:03;18.30;1.00
3876;DHT22;1953;51.222;6.624;2023-05-07T23:41:45;18.30;1.00
3876;DHT22;1953;51.222;6.624;2023-05-07T23:46:28;18.40;1.00
3876;DHT22;1953;51.222;6.624;2023-05-07T23:51:12;18.30;1.00
3876;DHT22;1953;51.222;6.624;2023-05-07T23:55:54;18.30;1.00
